createdAt,value
2024-02-02T14:22:41.501Z,1000.35
2024-02-02T14:23:22.488Z,1000.29
2024-02-02T14:53:25.028Z,999.97
2024-02-02T14:53:54.502Z,1000.04
2024-02-02T15:16:17.262Z,999.93
2024-02-02T15:17:17.589Z,999.85
2024-02-02T15:18:17.269Z,999.86
2024-02-02T15:19:17.290Z,999.91
2024-02-02T15:20:17.170Z,999.83
2024-02-02T15:21:17.174Z,999.85
2024-02-02T15:22:17.141Z,999.79
2024-02-02T15:23:17.130Z,999.86
2024-02-02T15:24:17.133Z,999.82
2024-02-02T15:25:17.110Z,999.85
2024-02-02T15:26:17.109Z,999.88
2024-02-02T15:27:17.115Z,999.82
2024-02-02T15:28:17.133Z,999.85
2024-02-02T15:29:17.073Z,999.90
2024-02-02T15:30:17.096Z,999.85
2024-02-02T15:31:17.057Z,999.90
2024-02-02T15:32:17.164Z,999.91
2024-02-02T15:33:17.144Z,1000.00
2024-02-02T15:34:17.226Z,999.90
2024-02-02T15:35:17.213Z,999.96
2024-02-02T15:36:17.061Z,999.93
2024-02-02T15:37:16.981Z,999.99
2024-02-02T15:38:16.972Z,999.96
2024-02-02T15:39:26.429Z,1000.00
2024-02-02T15:40:18.320Z,999.95
2024-02-02T15:41:17.069Z,999.88
2024-02-02T15:42:17.948Z,999.90
2024-02-02T15:43:18.019Z,999.86
2024-02-02T15:44:19.809Z,999.89
2024-02-02T15:45:16.980Z,999.83
2024-02-02T15:46:16.898Z,999.82
2024-02-02T15:47:16.883Z,999.79
2024-02-02T15:48:17.031Z,999.82
2024-02-02T15:49:17.159Z,999.79
2024-02-02T15:50:16.882Z,999.75
2024-02-02T15:51:16.945Z,999.77
2024-02-02T15:52:16.917Z,999.78
2024-02-02T15:53:16.863Z,999.75
2024-02-02T15:54:16.869Z,999.75
2024-02-02T15:55:16.805Z,999.83
2024-02-02T15:56:16.875Z,999.76
2024-02-02T15:57:16.812Z,999.79
2024-02-02T15:58:16.889Z,999.71
2024-02-02T15:59:16.865Z,999.70
2024-02-02T16:00:16.794Z,999.68
2024-02-02T16:01:16.740Z,999.73
2024-02-02T16:02:16.727Z,999.67
2024-02-02T16:03:16.863Z,999.65
2024-02-02T16:04:16.912Z,999.62
2024-02-02T16:05:16.711Z,999.63
2024-02-02T16:06:16.696Z,999.64
2024-02-02T16:07:16.681Z,999.55
2024-02-02T16:08:16.670Z,999.59
2024-02-02T16:09:16.722Z,999.59
2024-02-02T16:10:16.638Z,999.62
2024-02-02T16:11:16.644Z,999.54
2024-02-02T16:12:16.736Z,999.61
2024-02-02T16:13:16.636Z,999.53
2024-02-02T16:14:16.600Z,999.54
2024-02-02T16:15:16.635Z,999.50
2024-02-02T16:16:16.575Z,999.55
2024-02-02T16:17:16.593Z,999.51
2024-02-02T16:18:16.703Z,999.50
2024-02-02T16:19:16.664Z,999.39
2024-02-02T16:20:16.560Z,999.40
2024-02-02T16:21:16.596Z,999.44
2024-02-02T16:22:16.530Z,999.50
2024-02-02T16:23:16.525Z,999.46
2024-02-02T16:24:16.523Z,999.50
2024-02-02T16:25:16.481Z,999.44
2024-02-02T16:26:16.509Z,999.50
2024-02-02T16:27:16.509Z,999.46
2024-02-02T16:28:16.520Z,999.50
2024-02-02T16:29:16.446Z,999.46
2024-02-02T16:30:16.501Z,999.42
2024-02-02T16:31:16.456Z,999.45
2024-02-02T16:32:16.414Z,999.46
2024-02-02T16:33:16.582Z,999.48
2024-02-02T16:34:16.686Z,999.50
2024-02-02T16:35:16.410Z,999.52
2024-02-02T16:36:16.543Z,999.53
2024-02-02T16:37:16.401Z,999.51
2024-02-02T16:38:16.388Z,999.55
2024-02-02T16:39:16.336Z,999.53
2024-02-02T16:40:16.379Z,999.58
2024-02-02T16:41:16.358Z,999.58
2024-02-02T16:42:16.348Z,999.58
2024-02-02T16:43:16.307Z,999.54
2024-02-02T16:44:16.930Z,999.60
2024-02-02T16:45:16.666Z,999.58
2024-02-02T16:46:16.291Z,999.65
2024-02-02T16:47:16.260Z,999.61
2024-02-02T16:48:16.292Z,999.57
2024-02-02T16:49:16.297Z,999.57
2024-02-02T16:50:16.246Z,999.54
2024-02-02T16:51:16.255Z,999.59
2024-02-02T16:52:16.249Z,999.53
2024-02-02T16:53:16.205Z,999.59
2024-02-02T16:54:16.234Z,999.69
2024-02-02T16:55:16.211Z,999.65
2024-02-02T16:56:16.168Z,999.67
2024-02-02T16:57:16.171Z,999.64
2024-02-02T16:58:16.218Z,999.65
2024-02-02T16:59:16.173Z,999.67
2024-02-02T17:00:16.184Z,999.76
2024-02-02T17:01:16.138Z,999.76
2024-02-02T17:02:16.141Z,999.77
2024-02-02T17:03:16.197Z,999.68
2024-02-02T17:04:16.284Z,999.83
2024-02-02T17:05:16.069Z,999.81
2024-02-02T17:06:16.122Z,999.78
2024-02-02T17:07:16.136Z,999.76
2024-02-02T17:08:16.462Z,999.74
2024-02-02T17:09:16.107Z,999.76
2024-02-02T17:10:16.053Z,999.75
2024-02-02T17:11:16.026Z,999.80
2024-02-02T17:12:16.076Z,999.84
2024-02-02T17:13:16.015Z,999.88
2024-02-02T17:14:15.982Z,999.91
2024-02-02T17:15:16.056Z,999.86
2024-02-02T17:16:15.957Z,999.91
2024-02-02T17:17:15.953Z,999.75
2024-02-02T17:18:16.102Z,999.81
2024-02-02T17:19:15.955Z,999.87
2024-02-02T17:20:15.992Z,999.79
2024-02-02T17:21:15.981Z,999.83
2024-02-02T17:22:15.914Z,999.80
2024-02-02T17:23:15.899Z,999.87
2024-02-02T17:24:15.940Z,999.86
2024-02-02T17:25:15.885Z,999.80
2024-02-02T17:26:15.884Z,999.79
2024-02-02T17:27:16.024Z,999.77
2024-02-02T17:28:15.876Z,999.74
2024-02-02T17:29:18.221Z,999.72
2024-02-02T17:30:15.981Z,999.75
2024-02-02T17:31:15.799Z,999.85
2024-02-02T17:32:17.663Z,999.81
2024-02-02T17:33:15.844Z,999.78
2024-02-02T17:34:16.101Z,999.80
2024-02-02T17:35:15.755Z,999.75
2024-02-02T17:36:15.813Z,999.74
2024-02-02T17:37:16.162Z,999.75
2024-02-02T17:38:15.727Z,999.80
2024-02-02T17:39:15.796Z,999.91
2024-02-02T17:40:15.893Z,999.90
2024-02-02T17:41:15.747Z,999.92
2024-02-02T17:42:15.747Z,999.89
2024-02-02T17:43:15.686Z,999.97
2024-02-02T17:44:18.326Z,999.92
2024-02-02T17:45:15.684Z,999.87
2024-02-02T17:46:15.651Z,999.89
2024-02-02T17:47:15.624Z,999.85
2024-02-02T17:48:15.900Z,999.91
2024-02-02T17:49:15.706Z,999.91
2024-02-02T17:50:15.841Z,999.93
2024-02-02T17:51:15.707Z,1000.02
2024-02-02T17:52:15.679Z,1000.04
2024-02-02T17:53:15.607Z,1000.02
2024-02-02T17:54:15.609Z,1000.04
2024-02-02T17:55:15.590Z,1000.01
2024-02-02T17:56:15.595Z,1000.07
2024-02-02T17:57:15.612Z,1000.12
2024-02-02T17:58:15.553Z,1000.08
2024-02-02T17:59:15.503Z,1000.07
2024-02-02T18:00:15.639Z,999.99
2024-02-02T18:01:15.515Z,999.95
2024-02-02T18:02:15.481Z,1000.00
2024-02-02T18:03:15.617Z,999.98
2024-02-02T18:04:15.519Z,999.99
2024-02-02T18:05:15.459Z,1000.02
2024-02-02T18:06:15.521Z,1000.00
2024-02-02T18:07:15.534Z,999.99
2024-02-02T18:08:15.696Z,1000.12
2024-02-02T18:09:15.444Z,1000.00
2024-02-02T18:10:15.427Z,999.97
2024-02-02T18:11:15.377Z,999.97
2024-02-02T18:12:15.432Z,1000.01
2024-02-02T18:13:15.389Z,1000.01
2024-02-02T18:14:15.372Z,999.93
2024-02-02T18:15:15.469Z,1000.01
2024-02-02T18:16:15.477Z,1000.10
2024-02-02T18:17:15.335Z,1000.04
2024-02-02T18:18:15.460Z,1000.08
2024-02-02T18:19:15.424Z,1000.15
2024-02-02T18:20:15.309Z,1000.12
2024-02-02T18:21:16.032Z,1000.10
2024-02-02T18:22:15.308Z,1000.01
2024-02-02T18:23:15.306Z,1000.07
2024-02-02T18:24:15.313Z,1000.05
2024-02-02T18:25:15.256Z,1000.12
2024-02-02T18:26:15.264Z,1000.21
2024-02-02T18:27:15.339Z,1000.27
2024-02-02T18:28:15.270Z,1000.13
2024-02-02T18:29:16.037Z,1000.27
2024-02-02T18:30:15.231Z,1000.26
2024-02-02T18:31:15.201Z,1000.20
2024-02-02T18:32:15.208Z,1000.20
2024-02-02T18:33:15.326Z,1000.24
2024-02-02T18:34:15.213Z,1000.27
2024-02-02T18:35:15.194Z,1000.22
2024-02-02T18:36:15.174Z,1000.25
2024-02-02T18:37:15.153Z,1000.24
2024-02-02T18:38:15.135Z,1000.25
2024-02-02T18:39:15.162Z,1000.31
2024-02-02T18:40:15.152Z,1000.29
2024-02-02T18:41:15.094Z,1000.27
2024-02-02T18:42:15.117Z,1000.22
2024-02-02T18:43:15.083Z,1000.21
2024-02-02T18:44:15.071Z,1000.25
2024-02-02T18:45:15.100Z,1000.35
2024-02-02T18:46:15.041Z,1000.33
2024-02-02T18:47:15.119Z,1000.31
2024-02-02T18:48:16.166Z,1000.28
2024-02-02T18:49:15.093Z,1000.28
2024-02-02T18:50:15.053Z,1000.25
2024-02-02T18:51:15.019Z,1000.28
2024-02-02T18:52:14.973Z,1000.18
2024-02-02T18:53:14.975Z,1000.30
2024-02-02T18:54:14.983Z,1000.21
2024-02-02T18:55:14.955Z,1000.21
2024-02-02T18:56:14.953Z,1000.21
2024-02-02T18:57:14.984Z,1000.20
2024-02-02T18:58:14.912Z,1000.20
2024-02-02T18:59:14.893Z,1000.19
2024-02-02T19:00:15.029Z,1000.25
2024-02-02T19:01:14.932Z,1000.05
2024-02-02T19:02:15.512Z,1000.10
2024-02-02T19:03:14.982Z,1000.06
2024-02-02T19:04:15.004Z,1000.11
2024-02-02T19:05:14.942Z,1000.19
2024-02-02T19:06:14.938Z,1000.18
2024-02-02T19:07:14.941Z,1000.20
2024-02-02T19:08:14.806Z,1000.23
2024-02-02T19:09:14.847Z,1000.25
2024-02-02T19:10:14.791Z,1000.21
2024-02-02T19:11:14.796Z,1000.22
2024-02-02T19:12:14.808Z,1000.15
2024-02-02T19:13:14.790Z,1000.17
2024-02-02T19:14:14.768Z,1000.21
2024-02-02T19:15:14.809Z,1000.17
2024-02-02T19:16:14.751Z,1000.15
2024-02-02T19:17:14.747Z,1000.22
2024-02-02T19:18:14.855Z,1000.29
2024-02-02T19:19:14.810Z,1000.20
2024-02-02T19:20:14.679Z,1000.22
2024-02-02T19:21:14.679Z,1000.17
2024-02-02T19:22:14.671Z,1000.19
2024-02-02T19:23:14.658Z,1000.22
2024-02-02T19:24:14.650Z,1000.24
2024-02-02T19:25:14.632Z,1000.33
2024-02-02T19:26:14.654Z,1000.14
2024-02-02T19:27:14.678Z,1000.21
2024-02-02T19:28:14.603Z,1000.22
2024-02-02T19:29:14.663Z,1000.22
2024-02-02T19:30:14.735Z,1000.19
2024-02-02T19:31:14.568Z,1000.20
2024-02-02T19:32:14.655Z,1000.25
2024-02-02T19:33:14.788Z,1000.16
2024-02-02T19:34:14.672Z,1000.21
2024-02-02T19:35:14.577Z,1000.24
2024-02-02T19:36:14.533Z,1000.20
2024-02-02T19:37:14.522Z,1000.28
2024-02-02T19:38:14.516Z,1000.27
2024-02-02T19:39:14.493Z,1000.28
2024-02-02T19:40:14.492Z,1000.30
2024-02-02T19:41:14.452Z,1000.25
2024-02-02T19:42:14.489Z,1000.22
2024-02-02T19:43:14.445Z,1000.26
2024-02-02T19:44:14.465Z,1000.35
2024-02-02T19:45:15.040Z,1000.42
2024-02-02T19:46:14.408Z,1000.34
2024-02-02T19:47:14.434Z,1000.31
2024-02-02T19:48:14.534Z,1000.35
2024-02-02T19:49:14.489Z,1000.32
2024-02-02T19:50:14.396Z,1000.23
2024-02-02T19:51:14.437Z,1000.22
2024-02-02T19:52:14.352Z,1000.30
2024-02-02T19:53:14.371Z,1000.32
2024-02-02T19:54:14.417Z,1000.35
2024-02-02T19:55:14.329Z,1000.31
2024-02-02T19:56:14.313Z,1000.30
2024-02-02T19:57:14.402Z,1000.34
2024-02-02T19:58:14.304Z,1000.34
2024-02-02T19:59:14.280Z,1000.34
2024-02-02T20:00:15.096Z,1000.42
2024-02-02T20:01:14.431Z,1000.37
2024-02-02T20:02:14.263Z,1000.32
2024-02-02T20:03:14.240Z,1000.31
2024-02-02T20:04:14.408Z,1000.35
2024-02-02T20:05:14.230Z,1000.33
2024-02-02T20:06:14.408Z,1000.41
2024-02-02T20:07:14.338Z,1000.32
2024-02-02T20:08:14.172Z,1000.38
2024-02-02T20:09:14.182Z,1000.34
2024-02-02T20:10:14.182Z,1000.33
2024-02-02T20:11:14.177Z,1000.39
2024-02-02T20:12:14.154Z,1000.32
2024-02-02T20:13:14.131Z,1000.36
2024-02-02T20:14:14.969Z,1000.37
2024-02-02T20:15:14.147Z,1000.38
2024-02-02T20:16:14.197Z,1000.40
2024-02-02T20:17:14.092Z,1000.42
2024-02-02T20:18:14.233Z,1000.38
2024-02-02T20:19:15.225Z,1000.40
2024-02-02T20:20:14.186Z,1000.38
2024-02-02T20:21:14.116Z,1000.39
2024-02-02T20:22:14.036Z,1000.39
2024-02-02T20:23:14.046Z,1000.36
2024-02-02T20:24:14.109Z,1000.33
2024-02-02T20:25:14.023Z,1000.39
2024-02-02T20:26:13.985Z,1000.33
2024-02-02T20:27:14.081Z,1000.40
2024-02-02T20:28:13.966Z,1000.38
2024-02-02T20:29:13.990Z,1000.32
2024-02-02T20:30:14.027Z,1000.40
2024-02-02T20:31:13.952Z,1000.32
2024-02-02T20:32:13.977Z,1000.37
2024-02-02T20:33:14.119Z,1000.40
2024-02-02T20:34:14.049Z,1000.35
2024-02-02T20:35:13.966Z,1000.40
2024-02-02T20:36:13.920Z,1000.35
2024-02-02T20:37:13.930Z,1000.37
2024-02-02T20:38:13.897Z,1000.42
2024-02-02T20:39:13.953Z,1000.44
2024-02-02T20:40:13.851Z,1000.50
2024-02-02T20:41:13.836Z,1000.52
2024-02-02T20:42:13.867Z,1000.50
2024-02-02T20:43:13.828Z,1000.41
2024-02-02T20:44:13.796Z,1000.42
2024-02-02T20:45:13.883Z,1000.41
2024-02-02T20:46:13.826Z,1000.48
2024-02-02T20:47:13.769Z,1000.53
2024-02-02T20:48:13.869Z,1000.47
2024-02-02T20:49:13.918Z,1000.53
2024-02-02T20:50:13.748Z,1000.55
2024-02-02T20:51:17.081Z,1000.56
2024-02-02T20:52:13.732Z,1000.59
2024-02-02T20:53:13.752Z,1000.64
2024-02-02T20:54:13.709Z,1000.44
2024-02-02T20:55:13.726Z,1000.59
2024-02-02T20:56:13.675Z,1000.61
2024-02-02T20:57:13.720Z,1000.54
2024-02-02T20:58:14.485Z,1000.62
2024-02-02T20:59:13.711Z,1000.65
2024-02-02T21:00:13.640Z,1000.55
2024-02-02T21:01:13.765Z,1000.60
2024-02-02T21:02:13.637Z,1000.64
2024-02-02T21:03:13.687Z,1000.55
2024-02-02T21:04:13.672Z,1000.60
2024-02-02T21:05:13.643Z,1000.58
2024-02-02T21:06:13.716Z,1000.58
2024-02-02T21:07:13.692Z,1000.59
2024-02-02T21:08:13.559Z,1000.55
2024-02-02T21:09:13.564Z,1000.55
2024-02-02T21:10:13.522Z,1000.55
2024-02-02T21:11:13.633Z,1000.58
2024-02-02T21:12:13.603Z,1000.59
2024-02-02T21:13:13.495Z,1000.55
2024-02-02T21:14:13.478Z,1000.61
2024-02-02T21:15:13.491Z,1000.62
2024-02-02T21:16:13.517Z,1000.68
2024-02-02T21:17:13.520Z,1000.67
2024-02-02T21:18:14.100Z,1000.72
2024-02-02T21:19:13.510Z,1000.63
2024-02-02T21:20:13.423Z,1000.68
2024-02-02T21:21:13.450Z,1000.73
2024-02-02T21:22:13.400Z,1000.77
2024-02-02T21:23:13.384Z,1000.76
2024-02-02T21:24:13.436Z,1000.76
2024-02-02T21:25:13.466Z,1000.78
2024-02-02T21:26:13.372Z,1000.70
2024-02-02T21:27:13.375Z,1000.72
2024-02-02T21:28:13.342Z,1000.73
2024-02-02T21:29:13.332Z,1000.73
2024-02-02T21:30:13.379Z,1000.82
2024-02-02T21:31:13.391Z,1000.77
2024-02-02T21:32:13.305Z,1000.78
2024-02-02T21:33:14.376Z,1000.81
2024-02-02T21:34:13.420Z,1000.79
2024-02-02T21:35:13.403Z,1000.85
2024-02-02T21:36:13.276Z,1000.88
2024-02-02T21:37:13.254Z,1000.79
2024-02-02T21:38:13.255Z,1000.80
2024-02-02T21:39:13.457Z,1000.82
2024-02-02T21:40:13.246Z,1000.79
2024-02-02T21:41:13.215Z,1000.80
2024-02-02T21:42:13.226Z,1000.75
2024-02-02T21:43:14.079Z,1000.78
2024-02-02T21:44:13.194Z,1000.78
2024-02-02T21:45:13.220Z,1000.76
2024-02-02T21:46:13.155Z,1000.74
2024-02-02T21:47:13.179Z,1000.73
2024-02-02T21:48:13.224Z,1000.78
2024-02-02T21:49:13.323Z,1000.78
2024-02-02T21:50:14.574Z,1000.77
2024-02-02T21:51:14.028Z,1000.75
2024-02-02T21:52:13.113Z,1000.85
2024-02-02T21:53:13.116Z,1000.80
2024-02-02T21:54:13.229Z,1000.84
2024-02-02T21:55:13.079Z,1000.84
2024-02-02T21:56:14.027Z,1000.81
2024-02-02T21:57:13.068Z,1000.84
2024-02-02T21:58:13.049Z,1000.81
2024-02-02T21:59:13.066Z,1000.82
2024-02-02T22:00:13.040Z,1000.85
2024-02-02T22:01:13.085Z,1000.86
2024-02-02T22:02:13.004Z,1000.84
2024-02-02T22:03:13.181Z,1000.78
2024-02-02T22:04:13.761Z,1000.82
2024-02-02T22:05:13.017Z,1000.91
2024-02-02T22:06:13.061Z,1000.88
2024-02-02T22:07:13.057Z,1000.99
2024-02-02T22:08:12.945Z,1000.92
2024-02-02T22:09:12.976Z,1000.97
2024-02-02T22:10:12.892Z,1000.93
2024-02-02T22:11:12.891Z,1000.94
2024-02-02T22:12:13.001Z,1000.94
2024-02-02T22:13:12.874Z,1000.91
2024-02-02T22:14:12.875Z,1000.89
2024-02-02T22:15:12.876Z,1000.89
2024-02-02T22:16:12.852Z,1000.91
2024-02-02T22:17:12.877Z,1000.89
2024-02-02T22:18:12.913Z,1000.88
2024-02-02T22:19:12.944Z,1000.87
2024-02-02T22:20:12.797Z,1000.81
2024-02-02T22:21:12.855Z,1000.87
2024-02-02T22:22:13.501Z,1000.84
2024-02-02T22:23:12.774Z,1000.82
2024-02-02T22:24:12.813Z,1000.83
2024-02-02T22:25:12.748Z,1000.83
2024-02-02T22:26:12.752Z,1000.80
2024-02-02T22:27:12.749Z,1000.86
2024-02-02T22:28:12.769Z,1000.86
2024-02-02T22:29:12.720Z,1000.98
2024-02-02T22:30:12.712Z,1000.89
2024-02-02T22:31:12.700Z,1000.87
2024-02-02T22:32:12.739Z,1000.87
2024-02-02T22:33:12.780Z,1000.83
2024-02-02T22:34:12.848Z,1000.78
2024-02-02T22:35:12.655Z,1000.77
2024-02-02T22:36:12.649Z,1000.80
2024-02-02T22:37:12.638Z,1000.78
2024-02-02T22:38:12.605Z,1000.80
2024-02-02T22:39:12.641Z,1000.81
2024-02-02T22:40:12.615Z,1000.83
2024-02-02T22:41:21.338Z,1000.80
2024-02-02T22:42:13.635Z,1000.83
2024-02-02T22:43:12.583Z,1000.76
2024-02-02T22:44:12.583Z,1000.83
2024-02-02T22:45:12.599Z,1000.83
2024-02-02T22:46:12.536Z,1000.79
2024-02-02T22:47:12.511Z,1000.79
2024-02-02T22:48:13.226Z,1000.78
2024-02-02T22:49:12.654Z,1000.74
2024-02-02T22:50:12.505Z,1000.78
2024-02-02T22:51:12.523Z,1000.78
2024-02-02T22:52:12.500Z,1000.72
2024-02-02T22:53:12.501Z,1000.72
2024-02-02T22:54:12.464Z,1000.77
2024-02-02T22:55:12.491Z,1000.75
2024-02-02T22:56:12.417Z,1000.73
2024-02-02T22:57:12.528Z,1000.75
2024-02-02T22:58:12.431Z,1000.79
2024-02-02T22:59:12.381Z,1000.81
2024-02-02T23:00:12.438Z,1000.75
2024-02-02T23:01:12.531Z,1000.80
2024-02-02T23:02:12.353Z,1000.74
2024-02-02T23:03:12.450Z,1000.74
2024-02-02T23:04:12.520Z,1000.74
2024-02-02T23:05:12.359Z,1000.74
2024-02-02T23:06:12.455Z,1000.77
2024-02-02T23:07:12.348Z,1000.79
2024-02-02T23:08:12.299Z,1000.74
2024-02-02T23:09:12.317Z,1000.75
2024-02-02T23:10:12.303Z,1000.72
2024-02-02T23:11:12.306Z,1000.75
2024-02-02T23:12:12.290Z,1000.74
2024-02-02T23:13:12.274Z,1000.76
2024-02-02T23:14:12.507Z,1000.81
2024-02-02T23:15:12.263Z,1000.76
2024-02-02T23:16:12.433Z,1000.83
2024-02-02T23:17:12.277Z,1000.81
2024-02-02T23:18:12.323Z,1000.73
2024-02-02T23:19:12.325Z,1000.78
2024-02-02T23:20:12.405Z,1000.81
2024-02-02T23:21:12.210Z,1000.79
2024-02-02T23:22:12.173Z,1000.77
2024-02-02T23:23:12.205Z,1000.74
2024-02-02T23:24:12.195Z,1000.71
2024-02-02T23:25:12.114Z,1000.63
2024-02-02T23:26:12.108Z,1000.60
2024-02-02T23:27:12.168Z,1000.57
2024-02-02T23:28:12.110Z,1000.62
2024-02-02T23:29:12.073Z,1000.60
2024-02-02T23:30:12.187Z,1000.60
2024-02-02T23:31:12.137Z,1000.54
2024-02-02T23:32:12.057Z,1000.62
2024-02-02T23:33:12.069Z,1000.64
2024-02-02T23:34:12.100Z,1000.62
2024-02-02T23:35:12.023Z,1000.60
2024-02-02T23:36:12.197Z,1000.58
2024-02-02T23:37:12.038Z,1000.59
2024-02-02T23:38:12.004Z,1000.58
2024-02-02T23:39:12.002Z,1000.61
2024-02-02T23:40:12.002Z,1000.61
2024-02-02T23:41:11.944Z,1000.64
2024-02-02T23:42:11.983Z,1000.62
2024-02-02T23:43:12.000Z,1000.61
2024-02-02T23:44:11.968Z,1000.63
2024-02-02T23:45:12.004Z,1000.68
2024-02-02T23:46:11.912Z,1000.66
2024-02-02T23:47:12.004Z,1000.63
2024-02-02T23:48:12.024Z,1000.68
2024-02-02T23:49:14.051Z,1000.67
2024-02-02T23:50:11.966Z,1000.62
2024-02-02T23:51:11.877Z,1000.73
2024-02-02T23:52:11.867Z,1000.71
2024-02-02T23:53:11.835Z,1000.70
2024-02-02T23:54:11.861Z,1000.64
2024-02-02T23:55:11.856Z,1000.59
2024-02-02T23:56:11.866Z,1000.56
2024-02-02T23:57:11.854Z,1000.54
2024-02-02T23:58:11.785Z,1000.46
2024-02-02T23:59:11.760Z,1000.52
